CMB808 Details

Departure: Joint Base McGuire Dix Lakehurst (KWRI)
Arrival: Lajes Air Base (LPLA) at N/A
Notes: USTRANSCOM CONTRACT FLIGHT


Current Weather Information
KWRI 250456Z AUTO 04003KT 10SM CLR 15/13 A3023 RMK AO2 SLP236 T01460128 402600140 $
LPLA 250500Z /////KT 9999 SCT018 21/17 Q1024